sensor_id;sensor_type;location;lat;lon;timestamp;P1;durP1;ratioP1;P2;durP2;ratioP2
22184;SDS011;11258;52.516;13.318;2022-08-04T00:00:28;9.15;;;5.35;;
22184;SDS011;11258;52.516;13.318;2022-08-04T00:05:35;7.20;;;5.85;;
22184;SDS011;11258;52.516;13.318;2022-08-04T00:10:53;8.18;;;6.57;;
22184;SDS011;11258;52.516;13.318;2022-08-04T00:13:23;7.30;;;5.55;;
22184;SDS011;11258;52.516;13.318;2022-08-04T00:15:51;9.25;;;6.68;;
22184;SDS011;11258;52.516;13.318;2022-08-04T00:18:17;10.45;;;6.47;;
22184;SDS011;11258;52.516;13.318;2022-08-04T00:20:50;9.95;;;6.85;;
22184;SDS011;11258;52.516;13.318;2022-08-04T00:23:21;9.82;;;6.40;;
22184;SDS011;11258;52.516;13.318;2022-08-04T00:25:50;10.10;;;6.45;;
22184;SDS011;11258;52.516;13.318;2022-08-04T00:28:16;8.90;;;6.22;;
22184;SDS011;11258;52.516;13.318;2022-08-04T00:30:42;9.27;;;6.32;;
22184;SDS011;11258;52.516;13.318;2022-08-04T00:33:08;9.40;;;6.28;;
22184;SDS011;11258;52.516;13.318;2022-08-04T00:35:33;8.65;;;5.95;;
22184;SDS011;11258;52.516;13.318;2022-08-04T00:38:00;9.75;;;6.40;;
22184;SDS011;11258;52.516;13.318;2022-08-04T00:40:42;10.18;;;6.32;;
22184;SDS011;11258;52.516;13.318;2022-08-04T00:43:30;8.32;;;6.55;;
22184;SDS011;11258;52.516;13.318;2022-08-04T00:52:01;9.73;;;6.53;;
22184;SDS011;11258;52.516;13.318;2022-08-04T01:00:08;7.60;;;6.10;;
22184;SDS011;11258;52.516;13.318;2022-08-04T01:08:07;7.90;;;6.07;;
22184;SDS011;11258;52.516;13.318;2022-08-04T01:13:53;8.75;;;6.65;;
22184;SDS011;11258;52.516;13.318;2022-08-04T01:16:43;7.68;;;5.28;;
22184;SDS011;11258;52.516;13.318;2022-08-04T01:22:27;6.97;;;5.82;;
22184;SDS011;11258;52.516;13.318;2022-08-04T01:31:25;8.38;;;5.32;;
22184;SDS011;11258;52.516;13.318;2022-08-04T01:33:58;6.43;;;5.30;;
22184;SDS011;11258;52.516;13.318;2022-08-04T01:36:28;6.78;;;5.47;;
22184;SDS011;11258;52.516;13.318;2022-08-04T01:38:57;9.40;;;6.00;;
22184;SDS011;11258;52.516;13.318;2022-08-04T01:41:44;8.30;;;5.80;;
22184;SDS011;11258;52.516;13.318;2022-08-04T01:44:10;8.68;;;5.82;;
22184;SDS011;11258;52.516;13.318;2022-08-04T01:46:38;5.75;;;5.15;;
22184;SDS011;11258;52.516;13.318;2022-08-04T01:49:04;5.90;;;5.15;;
22184;SDS011;11258;52.516;13.318;2022-08-04T01:51:31;7.75;;;5.88;;
22184;SDS011;11258;52.516;13.318;2022-08-04T01:54:01;6.63;;;5.55;;
22184;SDS011;11258;52.516;13.318;2022-08-04T01:56:27;7.22;;;5.55;;
22184;SDS011;11258;52.516;13.318;2022-08-04T01:58:56;8.30;;;5.70;;
22184;SDS011;11258;52.516;13.318;2022-08-04T02:01:22;6.80;;;5.05;;
22184;SDS011;11258;52.516;13.318;2022-08-04T02:03:47;7.30;;;5.65;;
22184;SDS011;11258;52.516;13.318;2022-08-04T02:06:31;7.60;;;5.57;;
22184;SDS011;11258;52.516;13.318;2022-08-04T02:09:37;6.93;;;5.68;;
22184;SDS011;11258;52.516;13.318;2022-08-04T02:12:17;6.55;;;5.45;;
22184;SDS011;11258;52.516;13.318;2022-08-04T02:14:52;7.47;;;5.50;;
22184;SDS011;11258;52.516;13.318;2022-08-04T02:20:05;7.32;;;5.72;;
22184;SDS011;11258;52.516;13.318;2022-08-04T02:22:36;5.13;;;4.63;;
22184;SDS011;11258;52.516;13.318;2022-08-04T02:25:07;6.78;;;4.80;;
22184;SDS011;11258;52.516;13.318;2022-08-04T02:27:39;6.90;;;5.93;;
22184;SDS011;11258;52.516;13.318;2022-08-04T02:30:30;7.18;;;5.72;;
22184;SDS011;11258;52.516;13.318;2022-08-04T02:33:03;7.28;;;4.95;;
22184;SDS011;11258;52.516;13.318;2022-08-04T02:35:34;7.32;;;5.75;;
22184;SDS011;11258;52.516;13.318;2022-08-04T02:38:21;5.97;;;5.38;;
22184;SDS011;11258;52.516;13.318;2022-08-04T02:40:54;8.23;;;5.13;;
22184;SDS011;11258;52.516;13.318;2022-08-04T02:43:24;6.25;;;4.90;;
22184;SDS011;11258;52.516;13.318;2022-08-04T02:45:52;9.10;;;5.15;;
22184;SDS011;11258;52.516;13.318;2022-08-04T02:48:21;7.00;;;5.47;;
22184;SDS011;11258;52.516;13.318;2022-08-04T02:50:49;8.32;;;5.47;;
22184;SDS011;11258;52.516;13.318;2022-08-04T02:53:16;7.43;;;4.90;;
22184;SDS011;11258;52.516;13.318;2022-08-04T02:55:45;8.38;;;5.25;;
22184;SDS011;11258;52.516;13.318;2022-08-04T02:58:14;8.45;;;5.38;;
22184;SDS011;11258;52.516;13.318;2022-08-04T03:00:44;7.80;;;5.55;;
22184;SDS011;11258;52.516;13.318;2022-08-04T03:03:15;6.47;;;5.00;;
22184;SDS011;11258;52.516;13.318;2022-08-04T03:06:06;7.10;;;5.40;;
22184;SDS011;11258;52.516;13.318;2022-08-04T03:14:43;7.88;;;5.18;;
22184;SDS011;11258;52.516;13.318;2022-08-04T03:17:44;9.10;;;5.03;;
22184;SDS011;11258;52.516;13.318;2022-08-04T03:40:27;5.65;;;5.05;;
22184;SDS011;11258;52.516;13.318;2022-08-04T03:45:58;5.15;;;4.65;;
22184;SDS011;11258;52.516;13.318;2022-08-04T03:48:52;8.13;;;5.03;;
22184;SDS011;11258;52.516;13.318;2022-08-04T03:54:24;7.95;;;5.80;;
22184;SDS011;11258;52.516;13.318;2022-08-04T04:00:14;8.27;;;5.15;;
22184;SDS011;11258;52.516;13.318;2022-08-04T04:11:19;6.25;;;5.47;;
22184;SDS011;11258;52.516;13.318;2022-08-04T04:27:51;11.00;;;6.88;;
22184;SDS011;11258;52.516;13.318;2022-08-04T04:39:31;7.20;;;6.53;;
22184;SDS011;11258;52.516;13.318;2022-08-04T04:42:03;8.98;;;6.10;;
22184;SDS011;11258;52.516;13.318;2022-08-04T04:47:30;6.13;;;5.53;;
22184;SDS011;11258;52.516;13.318;2022-08-04T04:50:45;8.07;;;5.38;;
22184;SDS011;11258;52.516;13.318;2022-08-04T04:52:56;9.95;;;5.50;;
22184;SDS011;11258;52.516;13.318;2022-08-04T04:55:30;6.63;;;5.65;;
22184;SDS011;11258;52.516;13.318;2022-08-04T04:58:03;6.53;;;5.80;;
22184;SDS011;11258;52.516;13.318;2022-08-04T05:00:46;6.38;;;4.85;;
22184;SDS011;11258;52.516;13.318;2022-08-04T05:14:46;6.97;;;5.75;;
22184;SDS011;11258;52.516;13.318;2022-08-04T05:17:26;6.35;;;5.75;;
22184;SDS011;11258;52.516;13.318;2022-08-04T05:20:06;7.15;;;6.00;;
22184;SDS011;11258;52.516;13.318;2022-08-04T05:22:54;7.75;;;5.50;;
22184;SDS011;11258;52.516;13.318;2022-08-04T05:25:33;9.85;;;5.78;;
22184;SDS011;11258;52.516;13.318;2022-08-04T05:28:05;7.88;;;5.65;;
22184;SDS011;11258;52.516;13.318;2022-08-04T05:30:37;7.45;;;5.57;;
22184;SDS011;11258;52.516;13.318;2022-08-04T05:33:21;6.03;;;5.53;;
22184;SDS011;11258;52.516;13.318;2022-08-04T05:35:52;7.43;;;6.72;;
22184;SDS011;11258;52.516;13.318;2022-08-04T05:38:28;7.65;;;5.47;;
22184;SDS011;11258;52.516;13.318;2022-08-04T05:40:58;7.68;;;6.03;;
22184;SDS011;11258;52.516;13.318;2022-08-04T05:43:25;8.65;;;5.47;;
22184;SDS011;11258;52.516;13.318;2022-08-04T05:45:51;7.65;;;5.43;;
22184;SDS011;11258;52.516;13.318;2022-08-04T05:48:18;7.82;;;5.28;;
22184;SDS011;11258;52.516;13.318;2022-08-04T05:50:45;6.45;;;5.45;;
22184;SDS011;11258;52.516;13.318;2022-08-04T05:53:11;8.15;;;5.07;;
22184;SDS011;11258;52.516;13.318;2022-08-04T05:55:39;6.38;;;5.25;;
22184;SDS011;11258;52.516;13.318;2022-08-04T05:58:04;5.72;;;4.90;;
22184;SDS011;11258;52.516;13.318;2022-08-04T06:00:30;10.48;;;5.28;;
22184;SDS011;11258;52.516;13.318;2022-08-04T06:02:58;8.15;;;4.95;;
22184;SDS011;11258;52.516;13.318;2022-08-04T06:05:25;6.00;;;5.00;;
22184;SDS011;11258;52.516;13.318;2022-08-04T06:07:53;7.95;;;5.47;;
22184;SDS011;11258;52.516;13.318;2022-08-04T06:10:18;9.43;;;5.50;;
22184;SDS011;11258;52.516;13.318;2022-08-04T06:13:05;8.38;;;4.88;;
22184;SDS011;11258;52.516;13.318;2022-08-04T06:15:34;7.40;;;4.80;;
22184;SDS011;11258;52.516;13.318;2022-08-04T06:18:04;6.05;;;5.43;;
22184;SDS011;11258;52.516;13.318;2022-08-04T06:20:32;7.07;;;5.10;;
22184;SDS011;11258;52.516;13.318;2022-08-04T06:23:06;10.68;;;7.88;;
22184;SDS011;11258;52.516;13.318;2022-08-04T06:25:36;7.30;;;5.22;;
22184;SDS011;11258;52.516;13.318;2022-08-04T06:28:15;6.80;;;5.03;;
22184;SDS011;11258;52.516;13.318;2022-08-04T06:30:43;7.22;;;5.85;;
22184;SDS011;11258;52.516;13.318;2022-08-04T06:33:11;8.18;;;5.78;;
22184;SDS011;11258;52.516;13.318;2022-08-04T06:35:50;7.00;;;5.97;;
22184;SDS011;11258;52.516;13.318;2022-08-04T06:38:20;6.80;;;6.13;;
22184;SDS011;11258;52.516;13.318;2022-08-04T06:40:47;8.93;;;6.55;;
22184;SDS011;11258;52.516;13.318;2022-08-04T06:43:13;6.20;;;5.60;;
22184;SDS011;11258;52.516;13.318;2022-08-04T06:45:39;6.18;;;5.60;;
22184;SDS011;11258;52.516;13.318;2022-08-04T06:48:07;9.35;;;6.05;;
22184;SDS011;11258;52.516;13.318;2022-08-04T06:50:35;6.45;;;5.85;;
22184;SDS011;11258;52.516;13.318;2022-08-04T06:53:02;7.50;;;6.55;;
22184;SDS011;11258;52.516;13.318;2022-08-04T06:55:28;8.25;;;5.68;;
22184;SDS011;11258;52.516;13.318;2022-08-04T06:57:54;8.75;;;5.97;;
22184;SDS011;11258;52.516;13.318;2022-08-04T07:00:21;7.07;;;5.63;;
22184;SDS011;11258;52.516;13.318;2022-08-04T07:02:49;20.80;;;7.18;;
22184;SDS011;11258;52.516;13.318;2022-08-04T07:05:17;7.07;;;6.00;;
22184;SDS011;11258;52.516;13.318;2022-08-04T07:07:44;9.07;;;6.00;;
22184;SDS011;11258;52.516;13.318;2022-08-04T07:10:10;6.65;;;5.45;;
22184;SDS011;11258;52.516;13.318;2022-08-04T07:12:42;8.05;;;5.40;;
22184;SDS011;11258;52.516;13.318;2022-08-04T07:15:09;7.18;;;4.90;;
22184;SDS011;11258;52.516;13.318;2022-08-04T07:17:35;8.75;;;5.88;;
22184;SDS011;11258;52.516;13.318;2022-08-04T07:20:02;6.15;;;4.90;;
22184;SDS011;11258;52.516;13.318;2022-08-04T07:22:29;5.55;;;5.05;;
22184;SDS011;11258;52.516;13.318;2022-08-04T07:24:55;6.80;;;5.07;;
22184;SDS011;11258;52.516;13.318;2022-08-04T07:27:22;6.55;;;5.30;;
22184;SDS011;11258;52.516;13.318;2022-08-04T07:29:48;9.68;;;5.05;;
22184;SDS011;11258;52.516;13.318;2022-08-04T07:32:15;10.40;;;5.72;;
22184;SDS011;11258;52.516;13.318;2022-08-04T07:34:42;6.03;;;5.30;;
22184;SDS011;11258;52.516;13.318;2022-08-04T07:37:08;6.68;;;5.35;;
22184;SDS011;11258;52.516;13.318;2022-08-04T07:39:34;6.03;;;4.55;;
22184;SDS011;11258;52.516;13.318;2022-08-04T07:42:01;6.20;;;5.60;;
22184;SDS011;11258;52.516;13.318;2022-08-04T07:44:31;6.97;;;4.95;;
22184;SDS011;11258;52.516;13.318;2022-08-04T07:46:58;6.10;;;5.25;;
22184;SDS011;11258;52.516;13.318;2022-08-04T07:49:26;5.53;;;4.85;;
22184;SDS011;11258;52.516;13.318;2022-08-04T07:51:52;6.07;;;5.47;;
22184;SDS011;11258;52.516;13.318;2022-08-04T07:54:18;6.72;;;5.25;;
22184;SDS011;11258;52.516;13.318;2022-08-04T07:56:44;5.13;;;4.72;;
22184;SDS011;11258;52.516;13.318;2022-08-04T07:59:13;7.15;;;5.13;;
22184;SDS011;11258;52.516;13.318;2022-08-04T08:01:39;7.35;;;5.10;;
22184;SDS011;11258;52.516;13.318;2022-08-04T08:04:05;7.55;;;5.55;;
22184;SDS011;11258;52.516;13.318;2022-08-04T08:06:33;6.30;;;4.72;;
22184;SDS011;11258;52.516;13.318;2022-08-04T08:09:00;5.03;;;4.53;;
22184;SDS011;11258;52.516;13.318;2022-08-04T08:11:32;6.00;;;4.63;;
22184;SDS011;11258;52.516;13.318;2022-08-04T08:13:57;5.38;;;4.63;;
22184;SDS011;11258;52.516;13.318;2022-08-04T08:16:23;5.93;;;5.28;;
22184;SDS011;11258;52.516;13.318;2022-08-04T08:18:50;6.85;;;5.50;;
22184;SDS011;11258;52.516;13.318;2022-08-04T08:21:18;10.75;;;4.75;;
22184;SDS011;11258;52.516;13.318;2022-08-04T08:23:45;8.00;;;4.97;;
22184;SDS011;11258;52.516;13.318;2022-08-04T08:26:10;4.78;;;4.38;;
22184;SDS011;11258;52.516;13.318;2022-08-04T08:28:36;4.82;;;4.43;;
22184;SDS011;11258;52.516;13.318;2022-08-04T08:31:02;5.65;;;5.10;;
22184;SDS011;11258;52.516;13.318;2022-08-04T08:33:27;4.70;;;4.30;;
22184;SDS011;11258;52.516;13.318;2022-08-04T08:36:00;7.30;;;4.82;;
22184;SDS011;11258;52.516;13.318;2022-08-04T08:44:26;4.72;;;3.97;;
22184;SDS011;11258;52.516;13.318;2022-08-04T08:50:51;9.15;;;4.47;;
22184;SDS011;11258;52.516;13.318;2022-08-04T08:55:51;9.75;;;4.15;;
22184;SDS011;11258;52.516;13.318;2022-08-04T09:12:13;13.43;;;4.93;;
22184;SDS011;11258;52.516;13.318;2022-08-04T09:17:17;5.20;;;3.80;;
22184;SDS011;11258;52.516;13.318;2022-08-04T09:19:51;6.57;;;4.25;;
22184;SDS011;11258;52.516;13.318;2022-08-04T09:22:43;4.88;;;3.85;;
22184;SDS011;11258;52.516;13.318;2022-08-04T09:25:21;4.38;;;3.55;;
22184;SDS011;11258;52.516;13.318;2022-08-04T09:27:53;5.97;;;4.10;;
22184;SDS011;11258;52.516;13.318;2022-08-04T09:30:30;4.47;;;3.60;;
22184;SDS011;11258;52.516;13.318;2022-08-04T09:36:06;10.27;;;4.72;;
22184;SDS011;11258;52.516;13.318;2022-08-04T09:41:13;4.00;;;3.53;;
22184;SDS011;11258;52.516;13.318;2022-08-04T09:44:13;3.60;;;3.30;;
22184;SDS011;11258;52.516;13.318;2022-08-04T09:46:46;4.28;;;3.60;;
22184;SDS011;11258;52.516;13.318;2022-08-04T09:52:29;4.63;;;3.90;;
22184;SDS011;11258;52.516;13.318;2022-08-04T09:55:17;6.78;;;4.75;;
22184;SDS011;11258;52.516;13.318;2022-08-04T10:00:36;4.10;;;3.67;;
22184;SDS011;11258;52.516;13.318;2022-08-04T10:03:09;8.00;;;4.30;;
22184;SDS011;11258;52.516;13.318;2022-08-04T10:05:55;3.80;;;3.50;;
22184;SDS011;11258;52.516;13.318;2022-08-04T10:08:42;3.75;;;3.42;;
22184;SDS011;11258;52.516;13.318;2022-08-04T10:13:55;3.65;;;3.15;;
22184;SDS011;11258;52.516;13.318;2022-08-04T10:16:37;5.22;;;3.80;;
22184;SDS011;11258;52.516;13.318;2022-08-04T10:27:24;3.50;;;3.20;;
22184;SDS011;11258;52.516;13.318;2022-08-04T10:29:53;6.07;;;4.53;;
22184;SDS011;11258;52.516;13.318;2022-08-04T10:32:49;5.28;;;3.35;;
22184;SDS011;11258;52.516;13.318;2022-08-04T10:36:07;3.83;;;2.88;;
22184;SDS011;11258;52.516;13.318;2022-08-04T10:38:36;3.22;;;3.03;;
22184;SDS011;11258;52.516;13.318;2022-08-04T10:47:07;5.00;;;3.00;;
22184;SDS011;11258;52.516;13.318;2022-08-04T10:49:42;4.95;;;3.53;;
22184;SDS011;11258;52.516;13.318;2022-08-04T10:52:18;4.70;;;4.25;;
22184;SDS011;11258;52.516;13.318;2022-08-04T11:00:25;4.80;;;2.90;;
22184;SDS011;11258;52.516;13.318;2022-08-04T11:05:55;4.93;;;3.40;;
22184;SDS011;11258;52.516;13.318;2022-08-04T11:08:27;4.03;;;3.60;;
22184;SDS011;11258;52.516;13.318;2022-08-04T11:11:11;4.28;;;3.63;;
22184;SDS011;11258;52.516;13.318;2022-08-04T11:14:00;4.97;;;3.40;;
22184;SDS011;11258;52.516;13.318;2022-08-04T11:16:34;4.38;;;3.38;;
22184;SDS011;11258;52.516;13.318;2022-08-04T11:22:08;4.32;;;3.97;;
22184;SDS011;11258;52.516;13.318;2022-08-04T11:27:50;5.10;;;3.83;;
22184;SDS011;11258;52.516;13.318;2022-08-04T11:30:21;5.50;;;3.67;;
22184;SDS011;11258;52.516;13.318;2022-08-04T11:36:01;3.95;;;3.53;;
22184;SDS011;11258;52.516;13.318;2022-08-04T11:38:41;3.58;;;3.00;;
22184;SDS011;11258;52.516;13.318;2022-08-04T11:41:16;4.72;;;3.45;;
22184;SDS011;11258;52.516;13.318;2022-08-04T11:43:54;4.70;;;3.53;;
22184;SDS011;11258;52.516;13.318;2022-08-04T11:46:28;4.40;;;3.15;;
22184;SDS011;11258;52.516;13.318;2022-08-04T11:49:05;6.03;;;3.60;;
22184;SDS011;11258;52.516;13.318;2022-08-04T11:51:35;6.72;;;3.80;;
22184;SDS011;11258;52.516;13.318;2022-08-04T11:54:03;4.90;;;3.03;;
22184;SDS011;11258;52.516;13.318;2022-08-04T11:56:29;3.95;;;3.65;;
22184;SDS011;11258;52.516;13.318;2022-08-04T11:58:55;3.60;;;3.30;;
22184;SDS011;11258;52.516;13.318;2022-08-04T12:01:37;5.38;;;2.85;;
22184;SDS011;11258;52.516;13.318;2022-08-04T12:04:16;5.20;;;3.08;;
22184;SDS011;11258;52.516;13.318;2022-08-04T12:09:43;8.65;;;3.33;;
22184;SDS011;11258;52.516;13.318;2022-08-04T12:17:48;3.25;;;2.90;;
22184;SDS011;11258;52.516;13.318;2022-08-04T12:20:24;4.95;;;2.88;;
22184;SDS011;11258;52.516;13.318;2022-08-04T12:22:52;3.00;;;2.80;;
22184;SDS011;11258;52.516;13.318;2022-08-04T12:25:35;4.72;;;3.00;;
22184;SDS011;11258;52.516;13.318;2022-08-04T12:28:07;3.83;;;2.80;;
22184;SDS011;11258;52.516;13.318;2022-08-04T12:30:44;3.95;;;2.80;;
22184;SDS011;11258;52.516;13.318;2022-08-04T12:39:11;3.28;;;2.97;;
22184;SDS011;11258;52.516;13.318;2022-08-04T12:44:35;7.85;;;3.05;;
22184;SDS011;11258;52.516;13.318;2022-08-04T12:47:10;3.22;;;3.00;;
22184;SDS011;11258;52.516;13.318;2022-08-04T12:49:37;5.53;;;3.00;;
22184;SDS011;11258;52.516;13.318;2022-08-04T12:52:06;6.63;;;3.30;;
22184;SDS011;11258;52.516;13.318;2022-08-04T12:54:33;3.35;;;3.05;;
22184;SDS011;11258;52.516;13.318;2022-08-04T12:57:01;4.95;;;2.78;;
22184;SDS011;11258;52.516;13.318;2022-08-04T12:59:29;3.75;;;2.65;;
22184;SDS011;11258;52.516;13.318;2022-08-04T13:02:02;3.15;;;2.95;;
22184;SDS011;11258;52.516;13.318;2022-08-04T13:04:29;5.25;;;2.42;;
22184;SDS011;11258;52.516;13.318;2022-08-04T13:07:02;2.92;;;2.65;;
22184;SDS011;11258;52.516;13.318;2022-08-04T13:09:34;4.13;;;2.70;;
22184;SDS011;11258;52.516;13.318;2022-08-04T13:12:03;2.80;;;2.53;;
22184;SDS011;11258;52.516;13.318;2022-08-04T13:14:36;3.00;;;2.58;;
22184;SDS011;11258;52.516;13.318;2022-08-04T13:17:08;6.28;;;3.08;;
22184;SDS011;11258;52.516;13.318;2022-08-04T13:19:34;4.13;;;2.50;;
22184;SDS011;11258;52.516;13.318;2022-08-04T13:22:01;2.70;;;2.50;;
22184;SDS011;11258;52.516;13.318;2022-08-04T13:24:28;4.63;;;2.85;;
22184;SDS011;11258;52.516;13.318;2022-08-04T13:26:59;5.93;;;2.45;;
22184;SDS011;11258;52.516;13.318;2022-08-04T13:29:35;5.60;;;2.35;;
22184;SDS011;11258;52.516;13.318;2022-08-04T13:32:04;4.35;;;2.60;;
22184;SDS011;11258;52.516;13.318;2022-08-04T13:34:31;4.60;;;3.33;;
22184;SDS011;11258;52.516;13.318;2022-08-04T13:36:58;3.17;;;2.78;;
22184;SDS011;11258;52.516;13.318;2022-08-04T13:39:25;3.10;;;2.72;;
22184;SDS011;11258;52.516;13.318;2022-08-04T13:41:54;4.15;;;3.75;;
22184;SDS011;11258;52.516;13.318;2022-08-04T13:44:23;3.25;;;2.63;;
22184;SDS011;11258;52.516;13.318;2022-08-04T13:46:58;2.53;;;2.33;;
22184;SDS011;11258;52.516;13.318;2022-08-04T13:49:29;3.15;;;2.95;;
22184;SDS011;11258;52.516;13.318;2022-08-04T13:51:55;4.28;;;3.25;;
22184;SDS011;11258;52.516;13.318;2022-08-04T13:57:11;6.05;;;2.65;;
22184;SDS011;11258;52.516;13.318;2022-08-04T13:59:41;4.22;;;3.47;;
22184;SDS011;11258;52.516;13.318;2022-08-04T14:05:04;3.13;;;2.40;;
22184;SDS011;11258;52.516;13.318;2022-08-04T14:07:39;3.20;;;2.45;;
22184;SDS011;11258;52.516;13.318;2022-08-04T14:10:10;2.60;;;2.40;;
22184;SDS011;11258;52.516;13.318;2022-08-04T14:12:42;4.13;;;3.28;;
22184;SDS011;11258;52.516;13.318;2022-08-04T14:15:29;3.40;;;2.47;;
22184;SDS011;11258;52.516;13.318;2022-08-04T14:21:00;2.42;;;2.22;;
22184;SDS011;11258;52.516;13.318;2022-08-04T14:23:37;2.55;;;2.03;;
22184;SDS011;11258;52.516;13.318;2022-08-04T14:28:45;3.67;;;2.35;;
22184;SDS011;11258;52.516;13.318;2022-08-04T14:31:15;2.38;;;2.22;;
22184;SDS011;11258;52.516;13.318;2022-08-04T14:33:44;3.45;;;1.90;;
22184;SDS011;11258;52.516;13.318;2022-08-04T14:36:11;1.88;;;1.77;;
22184;SDS011;11258;52.516;13.318;2022-08-04T14:38:41;2.55;;;2.25;;
22184;SDS011;11258;52.516;13.318;2022-08-04T14:41:12;4.10;;;2.90;;
22184;SDS011;11258;52.516;13.318;2022-08-04T14:43:54;2.45;;;2.00;;
22184;SDS011;11258;52.516;13.318;2022-08-04T14:46:22;2.55;;;2.20;;
22184;SDS011;11258;52.516;13.318;2022-08-04T14:49:09;5.80;;;3.20;;
22184;SDS011;11258;52.516;13.318;2022-08-04T14:51:40;4.95;;;3.72;;
22184;SDS011;11258;52.516;13.318;2022-08-04T14:54:09;3.75;;;2.80;;
22184;SDS011;11258;52.516;13.318;2022-08-04T14:56:37;2.60;;;2.40;;
22184;SDS011;11258;52.516;13.318;2022-08-04T14:59:08;3.22;;;2.88;;
22184;SDS011;11258;52.516;13.318;2022-08-04T15:01:35;4.55;;;2.30;;
22184;SDS011;11258;52.516;13.318;2022-08-04T15:04:03;2.67;;;2.30;;
22184;SDS011;11258;52.516;13.318;2022-08-04T15:06:30;2.63;;;2.40;;
22184;SDS011;11258;52.516;13.318;2022-08-04T15:09:02;2.60;;;2.40;;
22184;SDS011;11258;52.516;13.318;2022-08-04T15:11:33;2.25;;;2.05;;
22184;SDS011;11258;52.516;13.318;2022-08-04T15:14:00;2.55;;;2.15;;
22184;SDS011;11258;52.516;13.318;2022-08-04T15:16:27;2.80;;;2.35;;
22184;SDS011;11258;52.516;13.318;2022-08-04T15:18:54;3.03;;;2.17;;
22184;SDS011;11258;52.516;13.318;2022-08-04T15:21:20;2.67;;;2.33;;
22184;SDS011;11258;52.516;13.318;2022-08-04T15:23:48;3.38;;;3.08;;
22184;SDS011;11258;52.516;13.318;2022-08-04T15:26:16;2.17;;;1.98;;
22184;SDS011;11258;52.516;13.318;2022-08-04T15:29:07;4.63;;;2.13;;
22184;SDS011;11258;52.516;13.318;2022-08-04T15:31:53;2.75;;;2.53;;
22184;SDS011;11258;52.516;13.318;2022-08-04T15:34:19;2.75;;;2.47;;
22184;SDS011;11258;52.516;13.318;2022-08-04T15:36:51;2.20;;;2.00;;
22184;SDS011;11258;52.516;13.318;2022-08-04T15:41:46;2.97;;;2.13;;
22184;SDS011;11258;52.516;13.318;2022-08-04T15:47:14;3.95;;;2.40;;
22184;SDS011;11258;52.516;13.318;2022-08-04T15:49:41;4.75;;;2.45;;
22184;SDS011;11258;52.516;13.318;2022-08-04T15:52:09;3.90;;;2.53;;
22184;SDS011;11258;52.516;13.318;2022-08-04T15:54:39;3.60;;;2.55;;
22184;SDS011;11258;52.516;13.318;2022-08-04T15:57:05;3.05;;;2.53;;
22184;SDS011;11258;52.516;13.318;2022-08-04T16:15:53;5.05;;;2.45;;
22184;SDS011;11258;52.516;13.318;2022-08-04T16:21:02;2.85;;;2.60;;
22184;SDS011;11258;52.516;13.318;2022-08-04T16:34:29;3.08;;;2.50;;
22184;SDS011;11258;52.516;13.318;2022-08-04T16:36:59;3.22;;;2.17;;
22184;SDS011;11258;52.516;13.318;2022-08-04T16:39:26;3.00;;;1.73;;
22184;SDS011;11258;52.516;13.318;2022-08-04T16:41:51;2.30;;;2.10;;
22184;SDS011;11258;52.516;13.318;2022-08-04T16:44:30;2.28;;;2.00;;
22184;SDS011;11258;52.516;13.318;2022-08-04T16:46:58;2.80;;;2.30;;
22184;SDS011;11258;52.516;13.318;2022-08-04T16:49:25;3.05;;;2.00;;
22184;SDS011;11258;52.516;13.318;2022-08-04T16:51:51;3.63;;;2.05;;
22184;SDS011;11258;52.516;13.318;2022-08-04T16:54:18;2.30;;;2.10;;
22184;SDS011;11258;52.516;13.318;2022-08-04T16:56:45;6.72;;;2.80;;
22184;SDS011;11258;52.516;13.318;2022-08-04T16:59:11;2.15;;;1.90;;
22184;SDS011;11258;52.516;13.318;2022-08-04T17:01:47;3.92;;;2.03;;
22184;SDS011;11258;52.516;13.318;2022-08-04T17:04:15;7.72;;;2.65;;
22184;SDS011;11258;52.516;13.318;2022-08-04T17:06:41;2.40;;;2.05;;
22184;SDS011;11258;52.516;13.318;2022-08-04T17:09:15;3.28;;;2.28;;
22184;SDS011;11258;52.516;13.318;2022-08-04T17:11:42;4.43;;;2.47;;
22184;SDS011;11258;52.516;13.318;2022-08-04T17:14:09;5.85;;;2.92;;
22184;SDS011;11258;52.516;13.318;2022-08-04T17:16:36;4.28;;;2.55;;
22184;SDS011;11258;52.516;13.318;2022-08-04T17:19:04;4.28;;;2.72;;
22184;SDS011;11258;52.516;13.318;2022-08-04T17:21:33;2.60;;;2.40;;
22184;SDS011;11258;52.516;13.318;2022-08-04T17:24:01;4.00;;;2.30;;
22184;SDS011;11258;52.516;13.318;2022-08-04T17:26:28;4.18;;;2.53;;
22184;SDS011;11258;52.516;13.318;2022-08-04T17:28:55;3.00;;;2.25;;
22184;SDS011;11258;52.516;13.318;2022-08-04T17:31:22;4.35;;;2.30;;
22184;SDS011;11258;52.516;13.318;2022-08-04T17:33:51;2.38;;;2.05;;
22184;SDS011;11258;52.516;13.318;2022-08-04T17:36:21;3.10;;;2.45;;
22184;SDS011;11258;52.516;13.318;2022-08-04T17:38:58;2.78;;;2.10;;
22184;SDS011;11258;52.516;13.318;2022-08-04T17:41:26;2.67;;;2.47;;
22184;SDS011;11258;52.516;13.318;2022-08-04T17:43:55;3.30;;;2.40;;
22184;SDS011;11258;52.516;13.318;2022-08-04T17:46:24;3.25;;;2.40;;
22184;SDS011;11258;52.516;13.318;2022-08-04T17:48:57;4.90;;;2.30;;
22184;SDS011;11258;52.516;13.318;2022-08-04T17:51:26;2.08;;;1.88;;
22184;SDS011;11258;52.516;13.318;2022-08-04T17:53:56;4.10;;;2.40;;
22184;SDS011;11258;52.516;13.318;2022-08-04T17:56:26;3.85;;;2.00;;
22184;SDS011;11258;52.516;13.318;2022-08-04T17:59:06;6.03;;;2.00;;
22184;SDS011;11258;52.516;13.318;2022-08-04T18:01:45;2.20;;;2.00;;
22184;SDS011;11258;52.516;13.318;2022-08-04T18:04:30;6.63;;;2.50;;
22184;SDS011;11258;52.516;13.318;2022-08-04T18:07:07;9.48;;;2.33;;
22184;SDS011;11258;52.516;13.318;2022-08-04T18:09:53;3.33;;;2.17;;
22184;SDS011;11258;52.516;13.318;2022-08-04T18:14:57;4.53;;;2.13;;
22184;SDS011;11258;52.516;13.318;2022-08-04T18:17:40;4.82;;;2.45;;
22184;SDS011;11258;52.516;13.318;2022-08-04T18:20:12;3.80;;;2.30;;
22184;SDS011;11258;52.516;13.318;2022-08-04T18:22:42;5.07;;;2.38;;
22184;SDS011;11258;52.516;13.318;2022-08-04T18:25:08;4.00;;;2.17;;
22184;SDS011;11258;52.516;13.318;2022-08-04T18:27:44;3.03;;;2.17;;
22184;SDS011;11258;52.516;13.318;2022-08-04T18:30:14;2.22;;;2.03;;
22184;SDS011;11258;52.516;13.318;2022-08-04T18:32:40;3.90;;;2.35;;
22184;SDS011;11258;52.516;13.318;2022-08-04T18:35:06;4.63;;;2.40;;
22184;SDS011;11258;52.516;13.318;2022-08-04T18:37:32;3.65;;;2.13;;
22184;SDS011;11258;52.516;13.318;2022-08-04T18:39:58;3.28;;;2.30;;
22184;SDS011;11258;52.516;13.318;2022-08-04T18:42:24;3.65;;;2.70;;
22184;SDS011;11258;52.516;13.318;2022-08-04T18:44:51;4.18;;;2.63;;
22184;SDS011;11258;52.516;13.318;2022-08-04T18:47:19;6.38;;;2.78;;
22184;SDS011;11258;52.516;13.318;2022-08-04T18:49:45;5.65;;;3.58;;
22184;SDS011;11258;52.516;13.318;2022-08-04T18:52:11;3.33;;;2.83;;
22184;SDS011;11258;52.516;13.318;2022-08-04T18:54:36;3.55;;;2.47;;
22184;SDS011;11258;52.516;13.318;2022-08-04T18:57:02;3.72;;;2.20;;
22184;SDS011;11258;52.516;13.318;2022-08-04T18:59:27;5.13;;;2.67;;
22184;SDS011;11258;52.516;13.318;2022-08-04T19:01:53;4.55;;;2.67;;
22184;SDS011;11258;52.516;13.318;2022-08-04T19:04:18;3.38;;;2.60;;
22184;SDS011;11258;52.516;13.318;2022-08-04T19:06:44;4.63;;;2.60;;
22184;SDS011;11258;52.516;13.318;2022-08-04T19:09:10;4.78;;;2.80;;
22184;SDS011;11258;52.516;13.318;2022-08-04T19:11:36;5.15;;;2.72;;
22184;SDS011;11258;52.516;13.318;2022-08-04T19:14:02;4.20;;;2.78;;
22184;SDS011;11258;52.516;13.318;2022-08-04T19:16:29;4.43;;;2.75;;
22184;SDS011;11258;52.516;13.318;2022-08-04T19:18:56;4.18;;;3.13;;